Time;durP1;ratioP1;P1;durP2;ratioP2;P2;SDS_P1;SDS_P2;PMS_P1;PMS_P2;Temp;Humidity;BMP_temperature;BMP_pressure;BME280_temperature;BME280_humidity;BME280_pressure;Samples;Min_cycle;Max_cycle;Signal;HPM_P1;HPM_P2
2022/07/25 10:56:13;;;;;;;6.47;4.35;;;26.60;78.70;;;;;;5109213;27;20461;-75
2022/07/25 10:58:48;;;;;;;7.85;4.53;;;26.60;77.40;;;;;;5100624;28;20032;-73
2022/07/25 11:01:14;;;;;;;6.40;4.18;;;26.60;76.40;;;;;;5089721;28;20051;-75
2022/07/25 11:03:43;;;;;;;4.95;4.28;;;26.60;77.00;;;;;;5094071;28;20423;-76
2022/07/25 11:06:13;;;;;;;9.00;4.47;;;26.60;77.20;;;;;;5093851;28;20032;-74
2022/07/25 11:09:06;;;;;;;11.93;4.47;;;26.60;79.10;;;;;;5091875;28;20031;-75
2022/07/25 11:11:34;;;;;;;7.30;4.60;;;26.70;78.60;;;;;;5069465;28;20037;-75
2022/07/25 11:13:59;;;;;;;5.28;4.18;;;26.90;79.00;;;;;;5076075;28;20035;-75
2022/07/25 11:17:06;;;;;;;6.95;4.28;;;26.70;77.40;;;;;;5092495;28;20434;-75
2022/07/25 11:19:31;;;;;;;6.45;4.68;;;26.70;78.10;;;;;;5087609;28;20095;-73
2022/07/25 11:22:00;;;;;;;8.02;5.10;;;26.60;78.50;;;;;;5089169;28;20478;-73
2022/07/25 11:24:44;;;;;;;6.57;4.78;;;26.70;78.80;;;;;;5088077;28;20554;-73
2022/07/25 11:27:11;;;;;;;5.57;4.50;;;26.60;77.80;;;;;;5088103;28;20033;-72
2022/07/25 11:29:37;;;;;;;6.43;4.43;;;26.60;77.30;;;;;;5089363;28;20271;-74
2022/07/25 11:32:05;;;;;;;5.97;3.70;;;26.60;77.50;;;;;;5089282;28;20024;-74
2022/07/25 11:34:33;;;;;;;6.50;4.07;;;26.70;77.00;;;;;;5089113;28;20025;-75
2022/07/25 11:37:00;;;;;;;6.10;3.83;;;26.70;77.30;;;;;;5086682;28;21835;-79
2022/07/25 11:39:26;;;;;;;5.10;3.70;;;26.80;76.90;;;;;;5086131;28;20025;-69
2022/07/25 11:42:15;;;;;;;5.50;3.45;;;26.90;76.40;;;;;;5087579;28;20113;-77
2022/07/25 11:44:49;;;;;;;5.75;3.85;;;26.70;75.30;;;;;;5088017;28;20107;-73
2022/07/25 11:47:29;;;;;;;7.95;4.53;;;26.60;75.80;;;;;;5089007;28;20029;-73
2022/07/25 11:49:57;;;;;;;4.22;3.83;;;26.60;76.20;;;;;;5089052;28;20036;-73
2022/07/25 11:52:29;;;;;;;6.82;4.18;;;26.80;76.20;;;;;;5088881;28;20035;-73
2022/07/25 11:55:12;;;;;;;6.47;4.30;;;26.70;76.40;;;;;;5088667;28;20135;-74
2022/07/25 11:57:39;;;;;;;7.30;3.88;;;26.70;75.70;;;;;;5088882;28;20020;-74
2022/07/25 12:00:16;;;;;;;5.25;3.67;;;26.80;75.90;;;;;;5088793;28;20021;-74
2022/07/25 12:02:41;;;;;;;8.57;3.53;;;26.80;75.80;;;;;;5088904;28;20024;-74
2022/07/25 12:05:09;;;;;;;6.65;4.40;;;26.80;75.80;;;;;;5088692;28;20030;-73
2022/07/25 12:07:47;;;;;;;6.38;4.18;;;26.80;76.40;;;;;;5074795;28;20035;-74
2022/07/25 12:10:56;;;;;;;6.50;4.15;;;26.80;76.60;;;;;;5073918;28;20083;-73
2022/07/25 12:13:25;;;;;;;8.85;4.63;;;26.80;76.90;;;;;;5074907;28;20548;-78
2022/07/25 12:15:51;;;;;;;7.72;6.93;;;26.80;77.10;;;;;;5073728;28;20037;-76
2022/07/25 12:18:17;;;;;;;4.97;4.30;;;26.80;77.60;;;;;;5066855;28;20020;-75
2022/07/25 12:20:42;;;;;;;7.90;5.03;;;26.80;77.10;;;;;;5074120;28;20099;-75
2022/07/25 12:23:10;;;;;;;6.15;4.30;;;27.60;78.00;;;;;;5073634;28;20059;-74
2022/07/25 12:25:40;;;;;;;7.38;4.97;;;26.80;77.30;;;;;;5074916;28;20037;-76
2022/07/25 12:28:07;;;;;;;8.40;4.03;;;26.80;78.10;;;;;;5073545;28;20476;-75
2022/07/25 12:30:33;;;;;;;7.57;4.20;;;26.80;77.80;;;;;;5074689;28;20032;-76
2022/07/25 12:32:58;;;;;;;5.82;4.55;;;27.20;78.40;;;;;;5072797;28;20028;-75
2022/07/25 12:35:24;;;;;;;7.55;6.15;;;26.80;79.00;;;;;;5056299;28;20056;-75
2022/07/25 12:37:50;;;;;;;10.77;6.72;;;26.80;79.50;;;;;;5074606;28;20032;-75
2022/07/25 12:40:15;;;;;;;9.68;4.75;;;26.80;81.20;;;;;;5073602;28;20028;-75
2022/07/25 12:42:41;;;;;;;6.43;4.35;;;26.70;81.10;;;;;;5074422;28;20028;-76
2022/07/25 12:45:08;;;;;;;7.22;4.25;;;26.70;81.20;;;;;;5073275;28;20047;-73
2022/07/25 12:47:33;;;;;;;8.63;3.33;;;26.70;82.40;;;;;;5065861;28;20450;-75
2022/07/25 12:49:59;;;;;;;5.25;3.28;;;26.80;81.90;;;;;;5062865;28;20151;-67
2022/07/25 12:52:24;;;;;;;3.78;2.90;;;26.80;82.10;;;;;;5067343;28;20063;-67
2022/07/25 12:54:50;;;;;;;9.70;3.45;;;26.90;82.60;;;;;;5055745;28;20075;-67
2022/07/25 12:57:16;;;;;;;7.75;3.55;;;26.90;82.50;;;;;;5086244;28;20024;-66
2022/07/25 12:59:41;;;;;;;6.18;3.35;;;27.10;83.20;;;;;;5088538;28;20017;-68
2022/07/25 13:02:10;;;;;;;5.70;3.20;;;26.60;83.40;;;;;;5073521;28;20534;-76
2022/07/25 13:04:35;;;;;;;6.18;3.15;;;27.20;84.50;;;;;;5065416;28;20039;-66
2022/07/25 13:07:01;;;;;;;4.80;3.25;;;26.80;84.10;;;;;;5072593;28;20021;-67
2022/07/25 13:09:27;;;;;;;5.00;3.22;;;27.40;83.70;;;;;;5073185;28;20035;-66
2022/07/25 13:11:52;;;;;;;4.00;3.63;;;27.50;83.70;;;;;;5073469;28;20024;-67
2022/07/25 13:14:18;;;;;;;7.35;3.67;;;27.20;83.60;;;;;;5077839;28;20477;-65
2022/07/25 13:16:44;;;;;;;4.63;3.28;;;27.00;84.30;;;;;;5073371;28;20029;-67
2022/07/25 13:19:10;;;;;;;7.50;3.75;;;27.50;83.90;;;;;;5070434;28;20024;-66
2022/07/25 13:21:35;;;;;;;11.30;3.58;;;27.00;84.80;;;;;;5078702;28;20613;-70
2022/07/25 13:24:01;;;;;;;10.90;4.55;;;27.10;85.70;;;;;;5081920;28;20467;-72
2022/07/25 13:26:27;;;;;;;10.55;4.18;;;27.70;84.50;;;;;;5072739;28;20119;-75
2022/07/25 13:28:52;;;;;;;11.00;4.22;;;27.00;84.90;;;;;;5065351;28;20105;-71
2022/07/25 13:31:19;;;;;;;5.45;3.00;;;27.10;84.30;;;;;;5071472;28;20321;-72
2022/07/25 13:33:53;;;;;;;8.30;2.92;;;27.50;83.20;;;;;;5073655;28;20090;-74
2022/07/25 13:36:22;;;;;;;;;;;27.00;82.20;;;;;;5074224;28;20025;-72
2022/07/25 13:38:47;;;;;;;9.85;3.13;;;26.90;83.10;;;;;;5051593;28;20253;-72
2022/07/25 13:41:13;;;;;;;6.28;3.25;;;26.90;83.10;;;;;;5061945;28;20043;-72
2022/07/25 13:43:38;;;;;;;2.67;2.47;;;26.90;82.50;;;;;;5093065;28;20032;-71
2022/07/25 13:46:04;;;;;;;3.95;2.67;;;27.20;81.80;;;;;;5093192;28;20020;-72
2022/07/25 13:48:29;;;;;;;5.18;2.80;;;27.00;82.20;;;;;;5077793;28;20024;-73
2022/07/25 13:50:56;;;;;;;3.50;2.10;;;26.90;81.00;;;;;;5072678;28;20749;-72
2022/07/25 13:53:21;;;;;;;4.13;2.90;;;27.40;80.90;;;;;;5071221;28;20020;-72
2022/07/25 13:55:47;;;;;;;8.27;3.15;;;27.50;81.10;;;;;;5064099;28;20048;-65
2022/07/25 13:58:13;;;;;;;6.15;2.67;;;26.80;81.00;;;;;;5063656;28;20492;-66
2022/07/25 14:00:38;;;;;;;4.90;2.63;;;26.80;81.60;;;;;;5081679;28;20034;-66
2022/07/25 14:03:04;;;;;;;4.75;2.58;;;26.60;81.80;;;;;;5075354;28;20016;-67
2022/07/25 14:05:30;;;;;;;10.15;2.92;;;26.60;81.80;;;;;;5072145;28;20077;-66
2022/07/25 14:07:55;;;;;;;5.28;2.80;;;26.60;82.10;;;;;;5071995;28;20044;-66
2022/07/25 14:10:21;;;;;;;5.25;2.97;;;26.60;81.90;;;;;;5072207;28;20551;-66
2022/07/25 14:12:46;;;;;;;6.30;2.88;;;26.50;82.10;;;;;;5072379;28;20024;-66
2022/07/25 14:15:12;;;;;;;5.28;2.65;;;27.00;82.80;;;;;;5072099;28;20388;-67
2022/07/25 14:17:38;;;;;;;4.38;2.28;;;26.50;82.40;;;;;;5072123;28;20017;-66
2022/07/25 14:20:04;;;;;;;4.15;2.47;;;26.50;82.20;;;;;;5072017;28;20051;-66
2022/07/25 14:22:30;;;;;;;9.45;2.45;;;26.60;81.80;;;;;;5071637;28;20036;-66
2022/07/25 14:24:56;;;;;;;6.28;2.60;;;26.80;80.60;;;;;;5070637;28;20042;-67
2022/07/25 14:27:22;;;;;;;5.22;2.38;;;26.90;81.40;;;;;;5071105;28;20098;-67
2022/07/25 14:29:48;;;;;;;2.10;1.88;;;26.70;79.80;;;;;;5069893;28;20025;-66
2022/07/25 14:32:13;;;;;;;2.72;2.38;;;26.70;79.60;;;;;;5070562;28;20021;-66
2022/07/25 14:34:39;;;;;;;9.10;3.13;;;26.70;79.70;;;;;;5071450;28;20060;-67
2022/07/25 14:37:30;;;;;;;6.93;3.15;;;26.70;80.50;;;;;;5070650;28;20103;-67
2022/07/25 14:39:57;;;;;;;5.82;2.60;;;26.60;81.90;;;;;;5051390;28;20048;-66
2022/07/25 14:42:22;;;;;;;6.70;3.13;;;26.50;82.20;;;;;;5070557;28;20032;-65
2022/07/25 14:44:48;;;;;;;11.05;6.05;;;26.50;82.70;;;;;;5071656;28;20028;-65
2022/07/25 14:47:13;;;;;;;4.90;3.97;;;26.40;83.10;;;;;;5071981;28;20027;-65
2022/07/25 14:49:39;;;;;;;3.13;2.80;;;26.40;83.50;;;;;;5072112;28;20116;-65
2022/07/25 14:52:05;;;;;;;6.10;2.58;;;26.40;83.30;;;;;;5076889;28;20112;-65
2022/07/25 14:54:30;;;;;;;7.80;2.65;;;26.50;83.20;;;;;;5072241;28;21453;-65
2022/07/25 14:56:56;;;;;;;12.57;3.22;;;26.30;83.50;;;;;;5076263;28;20037;-65
2022/07/25 14:59:22;;;;;;;6.47;3.42;;;26.20;83.50;;;;;;5071183;28;20024;-65
2022/07/25 15:01:48;;;;;;;5.85;3.00;;;26.20;83.80;;;;;;5071240;28;20392;-65
2022/07/25 15:04:13;;;;;;;4.97;3.00;;;26.20;83.90;;;;;;5071269;28;20032;-65
2022/07/25 15:06:39;;;;;;;3.78;2.67;;;26.10;83.90;;;;;;5072908;28;20036;-65
2022/07/25 15:09:04;;;;;;;4.32;2.60;;;26.20;84.20;;;;;;5071715;28;20021;-65
2022/07/25 15:11:30;;;;;;;7.18;3.25;;;26.00;84.60;;;;;;5071126;28;20032;-65
2022/07/25 15:13:56;;;;;;;7.40;3.45;;;26.00;85.70;;;;;;5070826;28;20063;-65
2022/07/25 15:16:22;;;;;;;12.43;3.47;;;26.20;86.50;;;;;;5071198;28;20105;-66
2022/07/25 15:18:47;;;;;;;5.15;2.97;;;26.00;86.90;;;;;;5071599;28;20467;-65
2022/07/25 15:21:13;;;;;;;8.35;3.05;;;26.00;86.50;;;;;;5071513;28;20107;-65
2022/07/25 15:23:38;;;;;;;7.53;2.95;;;26.30;86.60;;;;;;5070070;28;20028;-65
2022/07/25 15:26:04;;;;;;;6.68;2.47;;;25.90;86.00;;;;;;5071048;28;20045;-65
2022/07/25 15:28:33;;;;;;;9.30;2.80;;;26.20;86.60;;;;;;5070696;28;20032;-65
2022/07/25 15:30:58;;;;;;;8.35;3.53;;;25.90;86.20;;;;;;5071186;28;20571;-65
